Time;durP1;ratioP1;P1;durP2;ratioP2;P2;SDS_P1;SDS_P2;PMS_P1;PMS_P2;Temp;Humidity;BMP_temperature;BMP_pressure;BME280_temperature;BME280_humidity;BME280_pressure;Samples;Min_cycle;Max_cycle;Signal;HPM_P1;HPM_P2
2022/07/29 00:02:28;;;;;;;2.42;1.77;;;15.60;99.90;;;;;;5051962;28;20055;-61
2022/07/29 00:04:55;;;;;;;4.78;1.73;;;15.60;99.90;;;;;;5052223;28;20079;-60
2022/07/29 00:07:21;;;;;;;;;;;15.50;99.90;;;;;;5052412;28;20045;-59
2022/07/29 00:09:48;;;;;;;5.10;1.50;;;15.50;99.90;;;;;;5051643;28;20649;-60
2022/07/29 00:12:20;;;;;;;2.80;1.83;;;15.50;99.90;;;;;;5062252;28;20086;-60
2022/07/29 00:14:54;;;;;;;1.30;1.20;;;15.50;99.90;;;;;;5053733;28;20051;-61
2022/07/29 00:17:22;;;;;;;3.42;1.80;;;15.50;99.90;;;;;;5051466;28;20129;-60
2022/07/29 00:19:48;;;;;;;3.50;1.92;;;15.50;99.90;;;;;;5056660;28;20438;-60
2022/07/29 00:22:15;;;;;;;4.90;2.03;;;15.50;99.90;;;;;;5068257;28;20040;-60
2022/07/29 00:24:42;;;;;;;;;;;15.50;99.90;;;;;;5071841;28;20070;-61
2022/07/29 00:27:09;;;;;;;2.00;1.80;;;15.50;99.90;;;;;;5072277;28;20441;-60
2022/07/29 00:29:35;;;;;;;;;;;15.50;99.90;;;;;;5072119;28;20059;-60
2022/07/29 00:32:03;;;;;;;3.25;1.75;;;15.50;99.90;;;;;;5072426;28;20398;-61
2022/07/29 00:37:15;;;;;;;2.67;1.45;;;15.40;99.90;;;;;;5052316;28;20512;-58
2022/07/29 00:39:42;;;;;;;2.75;2.10;;;15.40;99.90;;;;;;5051687;28;20514;-60
2022/07/29 00:42:09;;;;;;;5.93;1.88;;;15.40;99.90;;;;;;5054792;28;20047;-60
2022/07/29 00:44:38;;;;;;;2.55;1.55;;;15.40;99.90;;;;;;5069196;28;20044;-59
2022/07/29 00:47:05;;;;;;;2.75;2.10;;;15.40;99.90;;;;;;5071210;28;20043;-60
2022/07/29 00:49:33;;;;;;;2.22;1.85;;;15.30;99.90;;;;;;5071729;28;20060;-60
2022/07/29 00:52:04;;;;;;;1.98;1.67;;;15.30;99.90;;;;;;5071411;28;20064;-60
2022/07/29 00:54:33;;;;;;;1.92;1.70;;;15.30;99.90;;;;;;5072083;28;20619;-59
2022/07/29 00:57:01;;;;;;;1.92;1.83;;;15.20;99.90;;;;;;5071759;28;20071;-60
2022/07/29 00:59:28;;;;;;;4.47;1.80;;;15.20;99.90;;;;;;5071935;28;20085;-60
2022/07/29 01:02:02;;;;;;;3.50;1.85;;;15.10;99.90;;;;;;5056436;28;20115;-58
2022/07/29 01:04:30;;;;;;;2.88;1.75;;;15.10;99.90;;;;;;5071417;28;20508;-61
2022/07/29 01:06:58;;;;;;;2.72;2.05;;;15.10;99.90;;;;;;5053912;28;20078;-60
2022/07/29 01:09:26;;;;;;;6.40;2.03;;;15.10;99.90;;;;;;5071406;28;20040;-59
2022/07/29 01:12:18;;;;;;;1.67;1.58;;;15.10;99.90;;;;;;5060087;28;20456;-60
2022/07/29 01:14:47;;;;;;;5.15;2.10;;;15.10;99.90;;;;;;5049710;28;20051;-60
2022/07/29 01:17:22;;;;;;;2.03;1.88;;;15.10;99.90;;;;;;5051151;28;20036;-59
2022/07/29 01:20:13;;;;;;;4.03;1.90;;;15.10;99.90;;;;;;5051374;28;20111;-60
2022/07/29 01:23:17;;;;;;;4.22;2.47;;;15.10;99.90;;;;;;5066886;28;20048;-60
2022/07/29 01:25:50;;;;;;;1.90;1.50;;;15.20;99.90;;;;;;5071306;28;20052;-59
2022/07/29 01:28:49;;;;;;;1.73;1.63;;;15.10;99.90;;;;;;5071759;28;20790;-56
2022/07/29 01:31:22;;;;;;;3.20;1.92;;;15.20;99.90;;;;;;5073498;28;20123;-59
2022/07/29 01:34:07;;;;;;;1.60;1.50;;;15.20;99.90;;;;;;5075288;28;20043;-60
2022/07/29 01:36:40;;;;;;;3.50;1.60;;;15.20;99.90;;;;;;5074423;28;20040;-61
2022/07/29 01:39:25;;;;;;;2.00;1.88;;;15.10;99.90;;;;;;5074936;28;20044;-60
2022/07/29 01:42:12;;;;;;;5.45;2.03;;;15.10;99.90;;;;;;5074169;28;20036;-60
2022/07/29 01:44:53;;;;;;;2.42;1.85;;;15.10;99.90;;;;;;5055850;28;20106;-60
2022/07/29 01:47:26;;;;;;;5.80;1.75;;;15.10;99.90;;;;;;5053235;28;21016;-60
2022/07/29 01:49:56;;;;;;;3.15;1.55;;;15.10;99.90;;;;;;5054110;28;20040;-59
2022/07/29 01:52:33;;;;;;;2.45;1.90;;;15.00;99.90;;;;;;5054815;28;20044;-60
2022/07/29 01:55:07;;;;;;;3.00;2.25;;;15.00;99.90;;;;;;5054288;28;20033;-61
2022/07/29 01:57:37;;;;;;;5.80;2.10;;;15.00;99.90;;;;;;5054840;28;20052;-60
2022/07/29 02:00:05;;;;;;;2.00;1.58;;;15.00;99.90;;;;;;5053001;28;20044;-60
2022/07/29 02:02:40;;;;;;;5.93;1.73;;;15.00;99.90;;;;;;5054628;28;20040;-60
2022/07/29 02:05:11;;;;;;;3.10;1.90;;;15.00;99.90;;;;;;5053048;28;20056;-60
2022/07/29 02:07:40;;;;;;;5.55;2.25;;;15.00;99.90;;;;;;5054258;28;20048;-61
2022/07/29 02:10:09;;;;;;;2.65;2.03;;;15.00;99.90;;;;;;5054272;28;20045;-60
2022/07/29 02:12:37;;;;;;;2.08;1.65;;;15.00;99.90;;;;;;5066853;28;20117;-59
2022/07/29 02:15:05;;;;;;;3.28;2.13;;;15.10;99.90;;;;;;5054608;28;20044;-62
2022/07/29 02:17:48;;;;;;;3.50;1.90;;;15.10;99.90;;;;;;5052564;28;20041;-61
2022/07/29 02:20:16;;;;;;;3.13;1.77;;;15.10;99.90;;;;;;5054821;28;20090;-61
2022/07/29 02:22:44;;;;;;;9.60;2.65;;;15.00;99.90;;;;;;5047387;28;20661;-60
2022/07/29 02:25:13;;;;;;;3.28;2.20;;;15.00;99.90;;;;;;5073342;28;20056;-60
2022/07/29 02:27:42;;;;;;;2.83;2.13;;;15.00;99.90;;;;;;5056892;28;20055;-60
2022/07/29 02:30:11;;;;;;;3.85;2.45;;;15.00;99.90;;;;;;5073436;28;20048;-60
2022/07/29 02:32:40;;;;;;;2.47;2.28;;;15.00;99.90;;;;;;5074367;28;20328;-61
2022/07/29 02:35:09;;;;;;;3.10;1.98;;;15.00;99.90;;;;;;5072546;28;20040;-61
2022/07/29 02:37:38;;;;;;;3.63;2.05;;;15.00;99.90;;;;;;5074379;28;20044;-61
2022/07/29 02:40:08;;;;;;;5.72;2.25;;;14.90;99.90;;;;;;5039316;28;20058;-60
2022/07/29 02:42:37;;;;;;;7.00;2.35;;;14.80;99.90;;;;;;5066939;28;20094;-60
2022/07/29 02:45:05;;;;;;;3.80;2.38;;;14.80;99.90;;;;;;5054938;28;20640;-61
2022/07/29 02:47:41;;;;;;;8.00;2.25;;;14.80;99.90;;;;;;5053619;28;20105;-61
2022/07/29 02:50:08;;;;;;;8.07;2.25;;;14.70;99.90;;;;;;5054120;28;20098;-60
2022/07/29 02:52:43;;;;;;;3.83;2.53;;;14.70;99.90;;;;;;5053687;28;20569;-60
2022/07/29 02:55:22;;;;;;;5.97;2.63;;;14.70;99.90;;;;;;5053445;28;20033;-60
2022/07/29 02:58:07;;;;;;;3.90;2.33;;;14.70;99.90;;;;;;5053812;28;20060;-60
2022/07/29 03:00:37;;;;;;;3.13;2.40;;;14.60;99.90;;;;;;5058269;28;20051;-59
2022/07/29 03:03:10;;;;;;;3.25;2.65;;;14.70;99.90;;;;;;5072717;28;20044;-60
2022/07/29 03:05:38;;;;;;;3.65;2.30;;;14.70;99.90;;;;;;5074475;28;20055;-60
2022/07/29 03:08:08;;;;;;;2.40;2.20;;;14.70;99.90;;;;;;5075132;28;20044;-61
2022/07/29 03:10:38;;;;;;;2.50;2.08;;;14.70;99.90;;;;;;5073930;28;20044;-60
2022/07/29 03:13:07;;;;;;;2.58;2.38;;;14.80;99.90;;;;;;5055486;28;20643;-61
2022/07/29 03:15:35;;;;;;;5.00;2.80;;;14.80;99.90;;;;;;5054480;28;20047;-60
2022/07/29 03:18:02;;;;;;;9.93;2.78;;;14.80;99.90;;;;;;5055011;28;20044;-60
2022/07/29 03:20:29;;;;;;;3.08;2.78;;;14.80;99.90;;;;;;5054298;28;20044;-58
2022/07/29 03:22:56;;;;;;;4.38;2.15;;;14.80;99.90;;;;;;5059473;28;20048;-58
2022/07/29 03:25:23;;;;;;;;;;;14.80;99.90;;;;;;5073911;28;20113;-59
2022/07/29 03:27:49;;;;;;;3.53;2.17;;;14.80;99.90;;;;;;5072507;28;19928;-60
2022/07/29 03:30:16;;;;;;;;;;;14.80;99.90;;;;;;5074756;28;20707;-58
2022/07/29 03:32:49;;;;;;;3.00;2.60;;;14.80;99.90;;;;;;5073767;28;19927;-59
2022/07/29 03:35:19;;;;;;;3.85;3.22;;;14.90;99.90;;;;;;5074372;28;20057;-60
2022/07/29 03:37:46;;;;;;;4.10;2.83;;;14.90;99.90;;;;;;5073378;28;20036;-59
2022/07/29 03:40:23;;;;;;;9.05;2.60;;;14.90;99.90;;;;;;5074231;28;20109;-60
2022/07/29 03:42:53;;;;;;;2.65;2.45;;;15.00;99.90;;;;;;5074117;28;20032;-60
2022/07/29 03:45:21;;;;;;;5.63;2.47;;;14.90;99.90;;;;;;5052452;28;20048;-59
2022/07/29 03:47:57;;;;;;;3.08;2.40;;;14.90;99.90;;;;;;5052891;28;20049;-60
2022/07/29 03:50:29;;;;;;;2.80;2.47;;;14.90;99.90;;;;;;5053278;28;20043;-60
2022/07/29 03:52:56;;;;;;;5.47;3.03;;;14.90;99.90;;;;;;5051143;28;20040;-59
2022/07/29 03:55:24;;;;;;;8.20;2.67;;;14.90;99.90;;;;;;5054053;28;20053;-58
2022/07/29 03:57:52;;;;;;;2.95;2.65;;;14.90;99.90;;;;;;5053989;28;20044;-59
2022/07/29 04:00:19;;;;;;;4.55;2.22;;;14.90;99.90;;;;;;5052177;28;20041;-60
2022/07/29 04:02:48;;;;;;;7.20;2.90;;;14.90;99.90;;;;;;5052756;28;20036;-60
2022/07/29 04:05:16;;;;;;;7.63;2.72;;;14.90;99.90;;;;;;5053327;28;20036;-61
2022/07/29 04:07:48;;;;;;;5.53;3.22;;;15.00;99.90;;;;;;5053046;28;20040;-60
2022/07/29 04:10:18;;;;;;;5.68;2.55;;;15.00;99.90;;;;;;5053288;28;20664;-60
2022/07/29 04:12:59;;;;;;;5.00;2.92;;;15.00;99.90;;;;;;5068076;28;20036;-59
2022/07/29 04:15:28;;;;;;;3.20;2.90;;;15.00;99.90;;;;;;5053685;28;20389;-59
2022/07/29 04:17:58;;;;;;;3.33;3.03;;;15.00;99.90;;;;;;5053106;28;20097;-60
2022/07/29 04:20:25;;;;;;;3.40;2.80;;;15.10;99.90;;;;;;5053193;28;20047;-59
2022/07/29 04:22:52;;;;;;;3.75;3.10;;;15.10;99.90;;;;;;5050306;28;20044;-60
2022/07/29 04:25:19;;;;;;;;;;;15.10;99.90;;;;;;5069123;28;20040;-60
2022/07/29 04:28:00;;;;;;;3.13;2.83;;;15.10;99.90;;;;;;5071995;28;19927;-60
2022/07/29 04:30:28;;;;;;;6.18;2.90;;;15.20;99.90;;;;;;5055440;28;20134;-59
2022/07/29 04:32:55;;;;;;;3.85;3.25;;;15.20;99.90;;;;;;5054611;28;20108;-61
2022/07/29 04:35:22;;;;;;;;;;;15.30;99.90;;;;;;5055755;28;20060;-58
2022/07/29 04:37:49;;;;;;;4.30;2.92;;;15.30;99.90;;;;;;5073351;28;19924;-59
2022/07/29 04:40:15;;;;;;;;;;;15.30;99.90;;;;;;5055609;28;20036;-60
2022/07/29 04:42:42;;;;;;;4.13;2.40;;;15.30;99.90;;;;;;5072108;28;19924;-60
2022/07/29 04:45:13;;;;;;;3.08;2.83;;;15.40;99.90;;;;;;5052703;28;20048;-60
2022/07/29 04:47:41;;;;;;;3.50;3.00;;;15.40;99.90;;;;;;5052964;28;20056;-61
2022/07/29 04:50:09;;;;;;;5.72;2.97;;;15.40;99.90;;;;;;5052565;28;20135;-60
2022/07/29 04:52:36;;;;;;;4.03;3.17;;;15.40;99.90;;;;;;5052643;28;20052;-60
2022/07/29 04:55:05;;;;;;;3.58;2.80;;;15.50;99.90;;;;;;5053005;28;20044;-59
2022/07/29 04:57:31;;;;;;;3.85;3.50;;;15.50;99.90;;;;;;5052981;28;20496;-60
2022/07/29 04:59:58;;;;;;;;;;;15.50;99.90;;;;;;5053186;28;20833;-59
2022/07/29 05:02:25;;;;;;;4.65;2.83;;;15.50;99.90;;;;;;5035139;28;20857;-60
2022/07/29 05:04:52;;;;;;;;;;;15.60;99.90;;;;;;5052247;28;20876;-58
2022/07/29 05:07:18;;;;;;;3.63;2.97;;;15.60;99.90;;;;;;5052664;28;19958;-61
2022/07/29 05:09:45;;;;;;;;;;;15.60;99.90;;;;;;5053006;28;20074;-59
2022/07/29 05:12:12;;;;;;;3.15;2.72;;;15.60;99.90;;;;;;5063109;28;19985;-61
2022/07/29 05:14:39;;;;;;;;;;;15.60;99.90;;;;;;5056814;28;20044;-60
2022/07/29 05:17:05;;;;;;;2.75;2.53;;;15.70;99.90;;;;;;5053119;28;20010;-60
2022/07/29 05:19:32;;;;;;;;;;;15.70;99.90;;;;;;5053271;28;20041;-61
2022/07/29 05:22:05;;;;;;;8.70;3.22;;;15.70;99.90;;;;;;5052236;28;19928;-61
2022/07/29 05:24:32;;;;;;;3.33;3.03;;;15.80;99.90;;;;;;5070378;28;20241;-49
2022/07/29 05:26:58;;;;;;;;;;;15.80;99.90;;;;;;5071368;28;20036;-53
2022/07/29 05:29:25;;;;;;;3.72;2.38;;;15.80;99.90;;;;;;5072804;28;19924;-56
2022/07/29 05:32:12;;;;;;;3.47;2.88;;;15.90;99.90;;;;;;5072758;28;20744;-54
2022/07/29 05:34:39;;;;;;;6.35;3.35;;;15.90;99.90;;;;;;5072063;28;20043;-53
2022/07/29 05:37:18;;;;;;;5.55;3.33;;;15.90;99.90;;;;;;5072794;28;20044;-53
2022/07/29 05:39:45;;;;;;;5.38;3.20;;;16.00;99.90;;;;;;5072620;28;20667;-54
2022/07/29 05:42:14;;;;;;;4.88;3.53;;;16.00;99.90;;;;;;5068121;28;20076;-52
2022/07/29 05:44:41;;;;;;;;;;;16.00;99.90;;;;;;5052180;28;20052;-53
2022/07/29 05:47:08;;;;;;;4.40;3.30;;;15.90;99.90;;;;;;5053063;28;19932;-54
2022/07/29 05:49:35;;;;;;;3.92;3.42;;;15.90;99.90;;;;;;5052101;28;20090;-54
2022/07/29 05:52:02;;;;;;;;;;;15.90;99.90;;;;;;5035201;28;20052;-53
2022/07/29 05:54:29;;;;;;;6.93;4.82;;;15.90;99.90;;;;;;5035051;28;19932;-52
2022/07/29 05:56:55;;;;;;;9.55;3.50;;;15.90;99.90;;;;;;5051791;28;20097;-54
2022/07/29 05:59:22;;;;;;;;;;;15.90;99.90;;;;;;5053196;28;20049;-55
2022/07/29 06:01:56;;;;;;;9.43;4.03;;;15.90;99.90;;;;;;5057576;28;19967;-53
2022/07/29 06:04:24;;;;;;;4.30;3.28;;;16.00;99.90;;;;;;5072162;28;20086;-54
2022/07/29 06:06:51;;;;;;;7.20;4.28;;;16.00;99.90;;;;;;5071828;28;20052;-53
2022/07/29 06:09:17;;;;;;;;;;;16.00;99.90;;;;;;5069576;28;20041;-53
2022/07/29 06:11:44;;;;;;;3.88;3.55;;;16.10;99.90;;;;;;5053666;28;19920;-52
2022/07/29 06:14:11;;;;;;;;;;;16.10;99.90;;;;;;5059036;28;20060;-53
2022/07/29 06:16:38;;;;;;;4.32;3.25;;;16.30;99.90;;;;;;5052414;28;19928;-52
2022/07/29 06:19:05;;;;;;;3.85;3.45;;;16.30;99.90;;;;;;5054730;28;20036;-52
2022/07/29 06:21:33;;;;;;;11.80;4.10;;;16.40;99.90;;;;;;5055682;28;20165;-53
2022/07/29 06:24:00;;;;;;;3.53;3.22;;;16.40;99.90;;;;;;5064145;28;20052;-51
2022/07/29 06:26:27;;;;;;;10.70;4.22;;;16.40;99.90;;;;;;5071584;28;20036;-52
2022/07/29 06:28:57;;;;;;;4.25;3.78;;;16.40;99.90;;;;;;5056364;28;20059;-53
2022/07/29 06:31:24;;;;;;;;;;;16.40;99.90;;;;;;5074971;28;20075;-52
2022/07/29 06:33:51;;;;;;;5.73;3.63;;;16.50;99.90;;;;;;5074022;28;19931;-53
2022/07/29 06:36:20;;;;;;;4.80;4.32;;;16.50;99.90;;;;;;5073869;28;20040;-52
2022/07/29 06:38:49;;;;;;;6.20;4.40;;;16.60;99.90;;;;;;5056257;28;20760;-51
2022/07/29 06:41:17;;;;;;;4.53;3.95;;;16.70;99.90;;;;;;5072447;28;20052;-52
2022/07/29 06:43:45;;;;;;;4.65;3.40;;;16.90;99.90;;;;;;5059668;28;20455;-51
2022/07/29 06:46:21;;;;;;;6.63;3.90;;;17.00;99.90;;;;;;5055462;28;20499;-50
2022/07/29 06:48:49;;;;;;;5.75;3.55;;;17.20;99.90;;;;;;5054850;28;20047;-52
2022/07/29 06:51:17;;;;;;;3.63;3.17;;;17.30;99.90;;;;;;5055315;28;20040;-51
2022/07/29 06:53:51;;;;;;;6.20;3.75;;;17.50;99.90;;;;;;5054792;28;20037;-52
2022/07/29 06:56:40;;;;;;;4.93;3.83;;;17.70;99.90;;;;;;5055077;28;20101;-53
2022/07/29 06:59:09;;;;;;;4.93;3.20;;;17.90;99.90;;;;;;5054675;28;20048;-52
2022/07/29 07:01:37;;;;;;;5.85;3.53;;;18.00;99.90;;;;;;5055071;28;20123;-52
2022/07/29 07:04:04;;;;;;;5.68;4.10;;;18.20;99.90;;;;;;5054362;28;20048;-51
2022/07/29 07:06:31;;;;;;;;;;;18.30;99.90;;;;;;5056004;28;20040;-51
2022/07/29 07:08:58;;;;;;;5.65;3.67;;;18.40;99.90;;;;;;5053355;28;19924;-49
2022/07/29 07:11:24;;;;;;;;;;;18.60;99.90;;;;;;5056993;28;20608;-47
2022/07/29 07:13:51;;;;;;;6.07;4.72;;;18.70;99.90;;;;;;5065246;28;20631;-48
2022/07/29 07:16:18;;;;;;;7.60;4.25;;;18.80;99.90;;;;;;5053874;28;20515;-49
2022/07/29 07:18:45;;;;;;;3.83;3.38;;;18.90;99.90;;;;;;5052940;28;20090;-49
2022/07/29 07:21:12;;;;;;;4.45;3.20;;;19.00;99.90;;;;;;5054027;28;20045;-48
2022/07/29 07:23:46;;;;;;;8.05;3.63;;;19.10;99.90;;;;;;5053289;28;20139;-47
2022/07/29 07:26:12;;;;;;;5.50;3.08;;;19.30;99.90;;;;;;5054492;28;20091;-47
2022/07/29 07:28:39;;;;;;;4.30;3.67;;;19.40;99.90;;;;;;5071717;28;20032;-47
2022/07/29 07:31:06;;;;;;;;;;;19.50;99.90;;;;;;5075221;28;20044;-51
2022/07/29 07:33:32;;;;;;;5.55;3.08;;;19.60;99.90;;;;;;5055342;28;19928;-56
2022/07/29 07:35:59;;;;;;;4.13;2.90;;;19.70;99.90;;;;;;5056712;28;20055;-51
2022/07/29 07:38:26;;;;;;;5.03;3.10;;;19.70;99.90;;;;;;5073806;28;20055;-46
2022/07/29 07:40:53;;;;;;;3.28;2.92;;;19.80;99.90;;;;;;5074344;28;20040;-52
2022/07/29 07:43:20;;;;;;;2.78;2.50;;;19.80;99.90;;;;;;5043947;28;20051;-52
2022/07/29 07:45:46;;;;;;;4.15;3.00;;;19.80;99.90;;;;;;5053578;28;20050;-52
2022/07/29 07:48:13;;;;;;;3.25;2.88;;;19.80;99.90;;;;;;5054121;28;20049;-52
2022/07/29 07:50:40;;;;;;;;;;;19.80;99.90;;;;;;5054206;28;20072;-53
2022/07/29 07:53:07;;;;;;;4.25;3.13;;;19.80;99.90;;;;;;5053818;28;19935;-53
2022/07/29 07:55:39;;;;;;;;;;;19.80;99.90;;;;;;5054348;28;20052;-58
2022/07/29 07:58:25;;;;;;;6.15;4.07;;;19.70;99.90;;;;;;5054220;28;19924;-51
2022/07/29 08:00:52;;;;;;;8.65;3.80;;;19.70;99.90;;;;;;5054312;28;20476;-49
2022/07/29 08:03:19;;;;;;;4.13;3.70;;;19.60;99.90;;;;;;5064014;28;20519;-47
2022/07/29 08:05:47;;;;;;;4.93;4.13;;;19.60;99.90;;;;;;5074132;28;20531;-47
2022/07/29 08:08:13;;;;;;;5.40;4.57;;;19.50;99.90;;;;;;5073655;28;20105;-47
2022/07/29 08:10:52;;;;;;;8.38;4.18;;;19.40;99.90;;;;;;5057071;28;20113;-48
2022/07/29 08:13:30;;;;;;;3.92;3.00;;;19.30;99.90;;;;;;5052587;28;20067;-47
2022/07/29 08:15:59;;;;;;;3.90;2.95;;;19.30;99.90;;;;;;5053734;28;20858;-47
2022/07/29 08:18:31;;;;;;;5.72;3.42;;;19.20;99.90;;;;;;5052783;28;20041;-47
2022/07/29 08:20:58;;;;;;;3.38;3.08;;;19.20;99.90;;;;;;5053837;28;20046;-48
2022/07/29 08:23:26;;;;;;;3.15;2.90;;;19.20;99.90;;;;;;5052982;28;20056;-52
2022/07/29 08:26:13;;;;;;;2.95;2.70;;;19.20;99.90;;;;;;5051685;28;20032;-51
2022/07/29 08:28:45;;;;;;;10.10;3.92;;;19.30;99.90;;;;;;5063524;28;20044;-53
2022/07/29 08:31:14;;;;;;;7.45;3.15;;;19.40;99.90;;;;;;5056889;28;20401;-50
2022/07/29 08:33:41;;;;;;;3.45;2.55;;;19.40;99.90;;;;;;5073366;28;20459;-48
2022/07/29 08:36:08;;;;;;;3.17;2.88;;;19.60;99.90;;;;;;5073431;28;20044;-50
2022/07/29 08:38:35;;;;;;;5.43;2.78;;;19.70;99.90;;;;;;5073295;28;20057;-49
2022/07/29 08:41:03;;;;;;;3.47;3.00;;;19.80;99.90;;;;;;5038300;28;20036;-51
2022/07/29 08:43:30;;;;;;;5.43;3.63;;;19.80;99.90;;;;;;5058145;28;20723;-48
2022/07/29 08:45:56;;;;;;;3.95;2.95;;;19.80;99.90;;;;;;5053221;28;20055;-49
2022/07/29 08:48:24;;;;;;;3.40;2.92;;;19.90;99.90;;;;;;5052739;28;20567;-48
2022/07/29 08:50:55;;;;;;;4.18;3.40;;;19.90;99.90;;;;;;5034784;28;20055;-48
2022/07/29 08:53:26;;;;;;;3.08;2.58;;;20.00;99.90;;;;;;5052130;28;20056;-50
2022/07/29 08:55:53;;;;;;;3.85;2.58;;;20.00;99.90;;;;;;5052977;28;20044;-48
2022/07/29 08:58:21;;;;;;;3.13;2.45;;;20.00;99.90;;;;;;5053074;28;20097;-49
2022/07/29 09:00:55;;;;;;;3.10;2.80;;;20.10;99.90;;;;;;5034513;28;20036;-52
2022/07/29 09:03:27;;;;;;;3.00;2.55;;;20.10;99.90;;;;;;5070465;28;20052;-49
2022/07/29 09:05:54;;;;;;;3.05;2.42;;;20.10;99.90;;;;;;5072387;28;20046;-57
2022/07/29 09:08:22;;;;;;;5.10;2.47;;;20.10;99.90;;;;;;5073139;28;20063;-48
2022/07/29 09:10:49;;;;;;;3.30;2.40;;;20.10;99.90;;;;;;5056028;28;20094;-50
2022/07/29 09:13:16;;;;;;;6.60;2.85;;;20.00;99.90;;;;;;5067788;28;20504;-49
2022/07/29 09:15:43;;;;;;;5.35;2.25;;;19.90;99.90;;;;;;5052423;28;20032;-48
2022/07/29 09:18:10;;;;;;;2.60;2.30;;;19.80;99.90;;;;;;5034583;28;20047;-47
2022/07/29 09:23:59;;;;;;;4.75;2.28;;;19.60;99.90;;;;;;5050908;28;20056;-49
2022/07/29 09:26:30;;;;;;;2.78;2.30;;;19.50;99.90;;;;;;5051689;28;20036;-49
2022/07/29 09:28:58;;;;;;;3.55;2.47;;;19.40;99.90;;;;;;5057270;28;20055;-49
2022/07/29 09:31:37;;;;;;;2.65;2.45;;;19.30;99.90;;;;;;5071238;28;20052;-49
2022/07/29 09:34:04;;;;;;;3.78;2.60;;;19.10;99.90;;;;;;5072088;28;20036;-50
2022/07/29 09:36:42;;;;;;;3.67;2.97;;;19.10;99.90;;;;;;5073204;28;20048;-48
2022/07/29 09:39:09;;;;;;;3.90;2.70;;;18.90;99.90;;;;;;5054328;28;20044;-49
2022/07/29 09:41:52;;;;;;;7.00;3.42;;;18.70;99.90;;;;;;5054873;28;20482;-50
2022/07/29 09:44:20;;;;;;;3.13;2.67;;;18.60;99.90;;;;;;5053417;28;20047;-51
2022/07/29 09:46:58;;;;;;;3.50;2.63;;;18.50;99.90;;;;;;5052445;28;20543;-52
2022/07/29 09:49:26;;;;;;;6.18;3.20;;;18.40;99.90;;;;;;5051480;28;20040;-53
2022/07/29 09:52:04;;;;;;;3.80;3.30;;;18.40;99.90;;;;;;5035610;28;20120;-53
2022/07/29 09:54:36;;;;;;;6.75;3.42;;;18.40;99.90;;;;;;5055844;28;20040;-52
2022/07/29 09:57:12;;;;;;;5.75;3.72;;;18.30;99.90;;;;;;5055356;28;20045;-52
2022/07/29 09:59:39;;;;;;;4.38;3.97;;;18.40;99.90;;;;;;5055791;28;20060;-50
2022/07/29 10:02:17;;;;;;;3.72;3.40;;;18.30;99.90;;;;;;5055342;28;20041;-52
2022/07/29 10:04:49;;;;;;;4.80;3.95;;;18.40;99.90;;;;;;5053895;28;20048;-51
2022/07/29 10:07:16;;;;;;;4.05;3.67;;;18.40;99.90;;;;;;5055384;28;20048;-52
2022/07/29 10:09:54;;;;;;;4.43;3.40;;;18.40;99.90;;;;;;5055377;28;20044;-51
2022/07/29 10:12:22;;;;;;;4.47;3.85;;;18.40;99.90;;;;;;5068054;28;20131;-51
2022/07/29 10:14:50;;;;;;;7.88;4.03;;;18.40;99.90;;;;;;5057728;28;20511;-52
2022/07/29 10:17:18;;;;;;;5.60;4.07;;;18.40;99.90;;;;;;5055744;28;20074;-52
2022/07/29 10:19:45;;;;;;;7.43;3.38;;;18.40;99.90;;;;;;5055402;28;20048;-52
2022/07/29 10:22:12;;;;;;;4.60;3.55;;;18.60;99.90;;;;;;5056005;28;20053;-50
2022/07/29 10:24:40;;;;;;;3.40;2.95;;;18.70;99.90;;;;;;5057675;28;20437;-51
2022/07/29 10:27:08;;;;;;;3.33;2.70;;;18.80;99.90;;;;;;5075823;28;20048;-50
2022/07/29 10:29:36;;;;;;;4.95;2.67;;;19.10;99.90;;;;;;5074024;28;20488;-53
2022/07/29 10:32:40;;;;;;;4.65;3.42;;;19.30;99.90;;;;;;5073945;28;20906;-52
2022/07/29 10:35:22;;;;;;;3.60;2.80;;;19.50;99.90;;;;;;5028291;28;20104;-47
2022/07/29 10:38:14;;;;;;;4.72;3.08;;;19.70;99.90;;;;;;5076267;28;20044;-47
2022/07/29 10:41:29;;;;;;;3.53;3.10;;;19.90;99.90;;;;;;5074426;28;20123;-47
2022/07/29 10:44:06;;;;;;;3.35;3.08;;;20.10;99.90;;;;;;5057127;28;20253;-46
2022/07/29 10:46:38;;;;;;;4.47;3.20;;;20.30;99.90;;;;;;5055351;28;20068;-47
2022/07/29 10:49:26;;;;;;;3.80;3.05;;;20.40;99.90;;;;;;5053504;28;20049;-47
2022/07/29 10:52:03;;;;;;;3.10;2.80;;;20.50;99.90;;;;;;5055013;28;20044;-49
2022/07/29 10:54:41;;;;;;;3.88;2.70;;;20.60;99.90;;;;;;5054841;28;20048;-48
2022/07/29 10:57:25;;;;;;;3.30;3.00;;;20.70;99.90;;;;;;5054928;28;20132;-55
2022/07/29 11:00:13;;;;;;;4.18;3.10;;;20.80;99.90;;;;;;5054084;28;20041;-51
2022/07/29 11:02:44;;;;;;;2.95;2.70;;;20.90;99.90;;;;;;5054223;28;20053;-53
2022/07/29 11:05:17;;;;;;;3.63;3.33;;;21.10;99.90;;;;;;5054566;28;20045;-54
2022/07/29 11:08:12;;;;;;;3.55;3.03;;;21.40;99.90;;;;;;5055098;28;20097;-52
2022/07/29 11:10:48;;;;;;;5.50;3.33;;;21.80;99.90;;;;;;5053805;28;20052;-54
2022/07/29 11:13:43;;;;;;;3.05;2.78;;;22.10;99.90;;;;;;5069496;28;20044;-54
2022/07/29 11:16:13;;;;;;;2.87;2.60;;;22.60;99.90;;;;;;5048006;28;20668;-54
2022/07/29 11:19:09;;;;;;;3.78;2.75;;;22.80;99.90;;;;;;5036017;28;20448;-54
2022/07/29 11:21:41;;;;;;;2.92;2.28;;;23.20;99.90;;;;;;5052784;28;20040;-53
2022/07/29 11:24:30;;;;;;;3.88;2.53;;;23.50;99.90;;;;;;5054529;28;20566;-54
2022/07/29 11:27:14;;;;;;;4.75;2.85;;;23.80;99.90;;;;;;5052177;28;20052;-54
2022/07/29 11:29:56;;;;;;;2.72;2.15;;;24.00;99.90;;;;;;5054133;28;20048;-53
2022/07/29 11:32:34;;;;;;;3.13;2.70;;;24.20;99.90;;;;;;5069789;28;20662;-55
2022/07/29 11:35:20;;;;;;;2.35;2.15;;;24.20;99.90;;;;;;5073711;28;20028;-53
2022/07/29 11:38:26;;;;;;;2.65;2.45;;;24.20;99.90;;;;;;5074033;28;20055;-55
2022/07/29 11:41:25;;;;;;;2.50;2.30;;;24.20;99.90;;;;;;5073901;28;20550;-54
2022/07/29 11:43:58;;;;;;;2.70;1.80;;;24.20;99.90;;;;;;5072019;28;20071;-53
2022/07/29 11:46:46;;;;;;;2.90;1.83;;;24.20;99.90;;;;;;5074240;28;20608;-54
2022/07/29 11:49:18;;;;;;;1.90;1.77;;;24.10;99.90;;;;;;5073116;28;20101;-54
2022/07/29 11:51:52;;;;;;;2.80;1.67;;;24.10;99.90;;;;;;5073318;28;20044;-53
2022/07/29 11:54:25;;;;;;;4.43;2.15;;;24.10;99.90;;;;;;5074239;28;20055;-53
2022/07/29 11:57:14;;;;;;;2.47;2.00;;;24.20;99.90;;;;;;5073985;28;20063;-53
2022/07/29 11:59:43;;;;;;;4.28;2.35;;;24.40;99.40;;;;;;5073939;28;20727;-51
2022/07/29 12:02:11;;;;;;;3.20;2.45;;;24.40;99.90;;;;;;5064342;28;20078;-53
2022/07/29 12:04:59;;;;;;;;;;;24.60;99.90;;;;;;5054242;28;20078;-51
2022/07/29 12:07:30;;;;;;;2.58;2.38;;;24.70;99.90;;;;;;5053649;28;19932;-61
2022/07/29 12:10:02;;;;;;;3.13;2.03;;;24.80;99.90;;;;;;5062752;28;20039;-49
2022/07/29 12:12:32;;;;;;;3.22;2.47;;;24.90;99.90;;;;;;5059036;28;20044;-52
2022/07/29 12:15:14;;;;;;;5.47;2.35;;;24.90;99.90;;;;;;5052704;28;20055;-51
2022/07/29 12:17:42;;;;;;;2.85;2.20;;;24.80;99.90;;;;;;5073657;28;20040;-51
2022/07/29 12:20:09;;;;;;;3.45;2.20;;;24.80;96.70;;;;;;5073873;28;20573;-52
2022/07/29 12:22:40;;;;;;;5.13;2.00;;;24.60;94.10;;;;;;5073512;28;20051;-52
2022/07/29 12:25:11;;;;;;;3.88;2.55;;;24.50;98.40;;;;;;5073298;28;20051;-54
2022/07/29 12:28:12;;;;;;;5.65;1.88;;;24.40;99.90;;;;;;5071424;28;20492;-54
2022/07/29 12:30:50;;;;;;;6.18;2.45;;;24.40;99.90;;;;;;5072660;28;20044;-53
2022/07/29 12:33:27;;;;;;;2.10;1.90;;;24.30;99.90;;;;;;5071255;28;20490;-54
2022/07/29 12:35:57;;;;;;;3.67;2.20;;;24.20;99.90;;;;;;5034490;28;20638;-55
2022/07/29 12:38:34;;;;;;;2.67;1.67;;;24.20;99.90;;;;;;5052748;28;20049;-54
2022/07/29 12:41:03;;;;;;;3.05;2.63;;;24.10;99.90;;;;;;5053128;28;20056;-53
2022/07/29 12:43:30;;;;;;;2.50;2.30;;;24.00;99.90;;;;;;5064908;28;20060;-54
2022/07/29 12:45:57;;;;;;;5.97;2.45;;;23.90;99.90;;;;;;5055068;28;20745;-54
2022/07/29 12:48:39;;;;;;;2.78;2.03;;;23.70;99.90;;;;;;5072855;28;20105;-53
2022/07/29 12:51:08;;;;;;;1.90;1.80;;;23.50;99.90;;;;;;5058302;28;20053;-54
2022/07/29 12:53:36;;;;;;;2.13;1.77;;;23.50;99.90;;;;;;5051813;28;20036;-54
2022/07/29 12:56:05;;;;;;;2.95;1.85;;;23.40;99.90;;;;;;5052753;28;20048;-55
2022/07/29 12:58:51;;;;;;;2.60;1.90;;;23.30;99.90;;;;;;5057024;28;20085;-55
2022/07/29 13:01:19;;;;;;;2.42;2.22;;;23.20;99.90;;;;;;5055117;28;20055;-55
2022/07/29 13:03:59;;;;;;;4.95;2.50;;;23.20;99.90;;;;;;5073662;28;20097;-54
2022/07/29 13:06:40;;;;;;;3.17;1.98;;;23.10;99.90;;;;;;5072946;28;20558;-53
2022/07/29 13:09:15;;;;;;;3.08;2.00;;;23.00;99.90;;;;;;5071888;28;20719;-53
2022/07/29 13:11:44;;;;;;;4.85;2.40;;;22.90;99.90;;;;;;5059207;28;20142;-55
2022/07/29 13:14:39;;;;;;;7.18;2.50;;;22.80;99.90;;;;;;5060412;28;20098;-54
2022/07/29 13:17:17;;;;;;;2.55;2.10;;;22.80;99.90;;;;;;5053020;28;20167;-55
2022/07/29 13:19:50;;;;;;;5.10;2.75;;;22.90;99.90;;;;;;5053319;28;20704;-55
2022/07/29 13:22:22;;;;;;;4.18;2.88;;;22.90;99.90;;;;;;5052982;28;20527;-55
2022/07/29 13:25:03;;;;;;;3.35;2.40;;;23.00;99.90;;;;;;5035533;28;20048;-55